createdAt,value
2023-04-25T00:00:40.724Z,27.65
2023-04-25T00:05:44.033Z,27.77
2023-04-25T00:10:47.552Z,26.40
2023-04-25T00:15:52.752Z,17.73
2023-04-25T00:20:56.429Z,22.80
2023-04-25T00:25:59.824Z,21.73
2023-04-25T00:31:04.969Z,19.83
2023-04-25T00:36:09.566Z,21.45
2023-04-25T00:41:13.030Z,19.65
2023-04-25T00:46:17.875Z,19.67
2023-04-25T00:51:23.326Z,18.63
2023-04-25T00:56:26.753Z,23.33
2023-04-25T01:01:32.366Z,18.55
2023-04-25T01:06:35.775Z,18.85
2023-04-25T01:11:41.246Z,19.50
2023-04-25T01:16:46.335Z,18.45
2023-04-25T01:21:51.140Z,17.85
2023-04-25T01:26:57.404Z,25.15
2023-04-25T01:32:01.553Z,16.63
2023-04-25T01:37:06.701Z,17.60
2023-04-25T01:42:10.012Z,21.98
2023-04-25T01:47:13.305Z,18.63
2023-04-25T01:52:17.979Z,18.13
2023-04-25T01:57:21.499Z,22.85
2023-04-25T02:02:25.018Z,20.55
2023-04-25T02:07:29.974Z,23.80
2023-04-25T02:12:33.504Z,18.85
2023-04-25T02:17:36.913Z,18.15
2023-04-25T02:22:41.764Z,20.67
2023-04-25T02:27:45.116Z,24.00
2023-04-25T02:32:49.116Z,19.27
2023-04-25T02:37:54.159Z,20.40
2023-04-25T02:42:57.466Z,22.55
2023-04-25T02:48:00.995Z,25.85
2023-04-25T02:53:05.792Z,20.45
2023-04-25T02:58:09.146Z,18.63
2023-04-25T03:03:12.963Z,18.95
2023-04-25T03:08:18.251Z,21.42
2023-04-25T03:13:21.441Z,15.40
2023-04-25T03:18:25.042Z,18.52
2023-04-25T03:23:29.770Z,18.13
2023-04-25T03:28:32.973Z,19.23
2023-04-25T03:33:36.239Z,22.38
2023-04-25T03:38:42.436Z,21.92
2023-04-25T03:43:45.682Z,24.90
2023-04-25T03:48:49.004Z,17.30
2023-04-25T03:53:54.280Z,18.10
2023-04-25T03:58:58.061Z,18.58
2023-04-25T04:04:01.581Z,22.95
2023-04-25T04:09:10.022Z,18.48
2023-04-25T04:14:13.389Z,16.73
2023-04-25T04:19:16.917Z,16.13
2023-04-25T04:24:21.677Z,19.70
2023-04-25T04:29:24.975Z,15.13
2023-04-25T04:34:28.440Z,17.45
2023-04-25T04:39:33.248Z,18.48
2023-04-25T04:44:38.035Z,19.85
2023-04-25T04:49:41.326Z,19.30
2023-04-25T04:54:46.120Z,17.33
2023-04-25T04:59:49.321Z,19.30
2023-04-25T05:04:52.836Z,17.40
2023-04-25T05:09:57.691Z,16.45
2023-04-25T05:15:01.395Z,12.75
2023-04-25T05:20:06.905Z,17.20
2023-04-25T05:25:12.285Z,17.10
2023-04-25T05:30:15.709Z,13.88
2023-04-25T05:35:19.141Z,12.88
2023-04-25T05:40:23.913Z,16.77
2023-04-25T05:45:27.535Z,11.75
2023-04-25T05:50:30.964Z,17.65
2023-04-25T05:55:35.562Z,12.60
2023-04-25T06:00:39.411Z,11.60
2023-04-25T06:05:43.315Z,12.00
2023-04-25T06:10:47.974Z,12.05
2023-04-25T06:15:51.416Z,12.20
2023-04-25T06:20:54.747Z,14.70
2023-04-25T06:25:59.757Z,10.73
2023-04-25T06:31:03.182Z,9.20
2023-04-25T06:36:06.955Z,13.13
2023-04-25T06:41:11.775Z,10.02
2023-04-25T06:46:15.200Z,10.10
2023-04-25T06:51:18.889Z,9.43
2023-04-25T06:56:24.400Z,10.27
2023-04-25T07:01:27.816Z,12.15
2023-04-25T07:06:32.238Z,12.93
2023-04-25T07:11:36.982Z,12.82
2023-04-25T07:16:40.887Z,9.32
2023-04-25T07:21:44.304Z,7.82
2023-04-25T07:26:49.182Z,8.75
2023-04-25T07:31:52.699Z,7.28
2023-04-25T07:36:56.360Z,6.03
2023-04-25T07:42:01.581Z,8.15
2023-04-25T07:47:05.599Z,10.25
2023-04-25T07:52:08.962Z,8.98
2023-04-25T07:57:15.132Z,11.93
2023-04-25T08:02:18.843Z,9.77
2023-04-25T08:07:22.034Z,8.85
2023-04-25T08:12:27.207Z,8.48
2023-04-25T08:17:30.461Z,5.40
2023-04-25T08:22:34.989Z,8.13
2023-04-25T08:27:39.679Z,7.90
2023-04-25T08:32:43.155Z,8.90
2023-04-25T08:37:46.613Z,7.88
2023-04-25T08:42:52.806Z,7.65
2023-04-25T08:47:59.459Z,9.38
2023-04-25T08:53:07.500Z,9.60
2023-04-25T08:58:13.468Z,7.73
2023-04-25T09:03:17.210Z,5.85
2023-04-25T09:08:20.600Z,6.55
2023-04-25T09:13:30.214Z,7.95
2023-04-25T09:18:35.255Z,5.80
2023-04-25T09:23:43.133Z,5.10
2023-04-25T09:28:49.080Z,6.95
2023-04-25T09:33:55.299Z,6.85
2023-04-25T09:39:01.940Z,4.78
2023-04-25T09:44:06.936Z,7.00
2023-04-25T09:49:10.548Z,4.45
2023-04-25T09:54:14.192Z,4.78
2023-04-25T09:59:20.123Z,2.17
2023-04-25T10:04:29.646Z,3.35
2023-04-25T10:09:35.016Z,3.90
2023-04-25T10:14:40.654Z,4.03
2023-04-25T10:19:44.552Z,4.30
2023-04-25T10:24:49.189Z,5.60
2023-04-25T10:30:06.299Z,8.48
2023-04-25T10:35:16.522Z,5.82
2023-04-25T10:40:24.427Z,7.07
2023-04-25T10:45:29.239Z,8.02
2023-04-25T10:50:40.349Z,4.90
2023-04-25T10:55:52.856Z,7.97
2023-04-25T11:00:58.023Z,6.85
2023-04-25T11:06:03.520Z,13.32
2023-04-25T11:34:39.663Z,5.97
2023-04-25T11:39:47.553Z,6.07
2023-04-25T11:44:52.383Z,5.93
2023-04-25T11:49:55.883Z,6.88
2023-04-25T11:54:59.229Z,6.70
2023-04-25T12:00:12.964Z,5.68
2023-04-25T12:10:26.777Z,8.80
2023-04-25T12:15:31.915Z,5.55
2023-04-25T12:20:35.495Z,9.68
2023-04-25T12:25:40.600Z,5.00
2023-04-25T12:31:02.013Z,8.95
2023-04-25T12:36:10.386Z,6.00
2023-04-25T12:41:13.702Z,6.68
2023-04-25T12:46:18.455Z,6.22
2023-04-25T12:51:21.833Z,6.25
2023-04-25T12:56:25.929Z,11.05
2023-04-25T13:01:31.058Z,9.90
2023-04-25T13:06:34.482Z,6.63
2023-04-25T13:11:37.851Z,6.63
2023-04-25T13:16:42.991Z,8.50
2023-04-25T13:21:46.352Z,5.25
2023-04-25T13:26:49.867Z,8.70
2023-04-25T13:50:08.360Z,6.83
2023-04-25T13:55:11.985Z,7.38
2023-04-25T14:00:16.261Z,7.95
2023-04-25T14:05:21.266Z,11.70
2023-04-25T14:10:24.717Z,11.48
2023-04-25T14:15:28.501Z,10.57
2023-04-25T14:20:33.476Z,12.70
2023-04-25T14:25:37.950Z,13.23
2023-04-25T14:30:41.186Z,9.13
2023-04-25T14:35:46.719Z,10.85
2023-04-25T14:40:50.121Z,12.60
2023-04-25T14:45:54.437Z,12.25
2023-04-25T14:51:00.864Z,8.95
2023-04-25T14:56:04.273Z,14.32
2023-04-25T15:01:07.844Z,17.83
2023-04-25T15:06:12.716Z,14.68
2023-04-25T15:11:16.176Z,8.73
2023-04-25T15:16:19.576Z,13.10
2023-04-25T15:21:24.454Z,13.55
2023-04-25T15:26:28.051Z,17.35
2023-04-25T15:31:31.511Z,13.63
2023-04-25T15:36:36.328Z,14.82
2023-04-25T15:41:39.707Z,11.45
2023-04-25T15:46:44.568Z,12.52
2023-04-25T15:51:49.640Z,14.10
2023-04-25T15:56:52.881Z,14.02
2023-04-25T16:01:57.299Z,9.50
2023-04-25T16:07:03.698Z,10.82
2023-04-25T16:12:08.271Z,12.00
2023-04-25T16:17:11.592Z,11.50
2023-04-25T16:22:16.933Z,11.02
2023-04-25T16:27:20.261Z,9.27
2023-04-25T16:32:23.668Z,8.63
2023-04-25T16:37:28.591Z,9.35
2023-04-25T16:42:31.943Z,10.15
2023-04-25T16:47:36.563Z,12.10
2023-04-25T16:52:42.476Z,12.02
2023-04-25T16:57:47.583Z,12.63
2023-04-25T17:02:51.105Z,12.55
2023-04-25T17:07:56.960Z,10.77
2023-04-25T17:13:00.598Z,11.60
2023-04-25T17:18:04.099Z,10.60
2023-04-25T17:23:08.931Z,12.75
2023-04-25T17:28:13.176Z,12.00
2023-04-25T17:33:16.527Z,13.23
2023-04-25T17:38:21.755Z,11.52
2023-04-25T17:43:25.256Z,11.70
2023-04-25T17:48:28.690Z,14.05
2023-04-25T17:53:33.643Z,11.45
2023-04-25T17:58:37.102Z,15.23
2023-04-25T18:03:42.102Z,15.80
2023-04-25T18:08:47.951Z,17.88
2023-04-25T18:13:51.441Z,15.32
2023-04-25T18:18:55.148Z,14.82
2023-04-25T18:23:59.966Z,20.85
2023-04-25T18:29:03.748Z,37.63
2023-04-25T18:34:07.385Z,42.00
2023-04-25T18:39:21.942Z,50.22
2023-04-25T18:44:26.083Z,57.67
2023-04-25T18:49:29.683Z,43.20
2023-04-25T18:54:34.409Z,21.83
2023-04-25T18:59:37.697Z,32.33
2023-04-25T19:04:40.976Z,25.15
2023-04-25T19:09:45.669Z,17.35
2023-04-25T19:14:50.525Z,24.40
2023-04-25T19:19:54.290Z,29.20
2023-04-25T19:25:09.836Z,28.05
2023-04-25T19:30:14.678Z,29.42
2023-04-25T19:35:18.293Z,28.45
2023-04-25T19:40:23.607Z,20.33
2023-04-25T19:45:27.066Z,21.35
2023-04-25T19:50:30.889Z,20.83
2023-04-25T19:55:35.904Z,21.92
2023-04-25T20:00:39.316Z,57.13
2023-04-25T20:05:42.598Z,33.22
2023-04-25T20:10:47.492Z,49.65
2023-04-25T20:15:50.763Z,48.83
2023-04-25T20:20:55.464Z,52.70
2023-04-25T20:26:00.116Z,40.20
2023-04-25T20:31:03.398Z,35.60
2023-04-25T20:36:06.922Z,27.25
2023-04-25T20:41:11.754Z,23.38
2023-04-25T20:46:16.154Z,23.42
2023-04-25T20:51:20.421Z,26.55
2023-04-25T20:56:26.622Z,35.65
2023-04-25T21:01:30.325Z,20.38
2023-04-25T21:06:34.655Z,18.25
2023-04-25T21:11:39.643Z,29.92
2023-04-25T21:16:42.989Z,18.15
2023-04-25T21:21:47.528Z,22.83
2023-04-25T21:26:52.206Z,18.23
2023-04-25T21:31:56.812Z,19.70
2023-04-25T21:37:00.047Z,15.82
2023-04-25T21:42:06.376Z,17.05
2023-04-25T21:47:09.761Z,17.83
2023-04-25T21:52:13.237Z,18.77
2023-04-25T21:57:18.354Z,17.23
2023-04-25T22:02:22.050Z,16.17
2023-04-25T22:07:25.484Z,17.92
2023-04-25T22:12:30.273Z,15.27
2023-04-25T22:17:34.099Z,15.25
2023-04-25T22:22:37.285Z,16.42
2023-04-25T22:27:43.007Z,18.25
2023-04-25T22:32:46.583Z,16.55
2023-04-25T22:37:50.457Z,18.95
2023-04-25T22:42:55.544Z,17.98
2023-04-25T22:47:58.857Z,18.60
2023-04-25T22:53:04.128Z,20.63
2023-04-25T22:58:09.636Z,19.55
2023-04-25T23:03:13.346Z,21.02
2023-04-25T23:08:17.241Z,23.08
2023-04-25T23:13:22.215Z,18.98
2023-04-25T23:18:25.509Z,20.83
2023-04-25T23:23:28.845Z,22.92
2023-04-25T23:28:33.482Z,20.83
2023-04-25T23:33:37.117Z,22.65
2023-04-25T23:38:40.472Z,22.42
2023-04-25T23:43:45.193Z,21.17
2023-04-25T23:48:48.361Z,25.08
2023-04-25T23:53:51.969Z,23.45
2023-04-25T23:58:56.800Z,25.08
